sensor_id;sensor_type;location;lat;lon;timestamp;P1;durP1;ratioP1;P2;durP2;ratioP2
18503;SDS011;9381;54.244;10.074;2023-09-19T00:01:33;2.80;;;2.13;;
18503;SDS011;9381;54.244;10.074;2023-09-19T00:06:34;4.93;;;2.40;;
18503;SDS011;9381;54.244;10.074;2023-09-19T00:11:35;5.47;;;2.50;;
18503;SDS011;9381;54.244;10.074;2023-09-19T00:16:35;4.77;;;2.23;;
18503;SDS011;9381;54.244;10.074;2023-09-19T00:21:36;4.33;;;2.60;;
18503;SDS011;9381;54.244;10.074;2023-09-19T00:26:37;5.77;;;2.70;;
18503;SDS011;9381;54.244;10.074;2023-09-19T00:31:38;4.73;;;2.63;;
18503;SDS011;9381;54.244;10.074;2023-09-19T00:36:38;4.73;;;2.73;;
18503;SDS011;9381;54.244;10.074;2023-09-19T00:41:39;7.83;;;2.70;;
18503;SDS011;9381;54.244;10.074;2023-09-19T00:46:40;5.13;;;3.03;;
18503;SDS011;9381;54.244;10.074;2023-09-19T00:51:41;6.37;;;2.93;;
18503;SDS011;9381;54.244;10.074;2023-09-19T00:56:46;6.10;;;3.13;;
18503;SDS011;9381;54.244;10.074;2023-09-19T01:01:47;8.80;;;2.30;;
18503;SDS011;9381;54.244;10.074;2023-09-19T01:06:53;6.07;;;2.47;;
18503;SDS011;9381;54.244;10.074;2023-09-19T01:11:55;6.87;;;2.53;;
18503;SDS011;9381;54.244;10.074;2023-09-19T01:22:08;7.53;;;2.37;;
18503;SDS011;9381;54.244;10.074;2023-09-19T01:33:14;5.63;;;2.70;;
18503;SDS011;9381;54.244;10.074;2023-09-19T01:38:14;5.80;;;2.83;;
18503;SDS011;9381;54.244;10.074;2023-09-19T01:43:23;7.30;;;2.90;;
18503;SDS011;9381;54.244;10.074;2023-09-19T01:48:46;8.97;;;2.87;;
18503;SDS011;9381;54.244;10.074;2023-09-19T01:54:09;6.30;;;2.40;;
18503;SDS011;9381;54.244;10.074;2023-09-19T01:59:13;8.43;;;2.90;;
18503;SDS011;9381;54.244;10.074;2023-09-19T02:04:16;6.67;;;2.83;;
18503;SDS011;9381;54.244;10.074;2023-09-19T02:09:16;14.47;;;3.13;;
18503;SDS011;9381;54.244;10.074;2023-09-19T02:14:17;7.43;;;2.77;;
18503;SDS011;9381;54.244;10.074;2023-09-19T02:19:17;10.33;;;3.03;;
18503;SDS011;9381;54.244;10.074;2023-09-19T02:24:17;4.95;;;2.63;;
18503;SDS011;9381;54.244;10.074;2023-09-19T02:29:19;6.17;;;2.00;;
18503;SDS011;9381;54.244;10.074;2023-09-19T02:34:19;6.37;;;2.90;;
18503;SDS011;9381;54.244;10.074;2023-09-19T02:39:20;8.87;;;2.93;;
18503;SDS011;9381;54.244;10.074;2023-09-19T02:44:20;8.27;;;2.60;;
18503;SDS011;9381;54.244;10.074;2023-09-19T02:49:21;7.73;;;2.80;;
18503;SDS011;9381;54.244;10.074;2023-09-19T02:54:21;8.17;;;2.93;;
18503;SDS011;9381;54.244;10.074;2023-09-19T02:59:22;6.93;;;2.67;;
18503;SDS011;9381;54.244;10.074;2023-09-19T03:04:22;6.97;;;3.20;;
18503;SDS011;9381;54.244;10.074;2023-09-19T03:09:22;11.73;;;3.03;;
18503;SDS011;9381;54.244;10.074;2023-09-19T03:14:23;6.17;;;2.20;;
18503;SDS011;9381;54.244;10.074;2023-09-19T03:19:23;7.47;;;2.93;;
18503;SDS011;9381;54.244;10.074;2023-09-19T03:24:24;7.83;;;2.83;;
18503;SDS011;9381;54.244;10.074;2023-09-19T03:29:25;7.07;;;2.67;;
18503;SDS011;9381;54.244;10.074;2023-09-19T03:34:25;8.43;;;2.40;;
18503;SDS011;9381;54.244;10.074;2023-09-19T03:39:26;7.80;;;2.50;;
18503;SDS011;9381;54.244;10.074;2023-09-19T03:44:26;12.63;;;2.93;;
18503;SDS011;9381;54.244;10.074;2023-09-19T03:49:26;9.10;;;2.72;;
18503;SDS011;9381;54.244;10.074;2023-09-19T03:54:27;9.18;;;2.78;;
18503;SDS011;9381;54.244;10.074;2023-09-19T03:59:27;11.35;;;2.88;;
18503;SDS011;9381;54.244;10.074;2023-09-19T04:04:29;11.73;;;2.53;;
18503;SDS011;9381;54.244;10.074;2023-09-19T04:09:29;10.57;;;2.70;;
18503;SDS011;9381;54.244;10.074;2023-09-19T04:14:30;8.87;;;2.40;;
18503;SDS011;9381;54.244;10.074;2023-09-19T04:19:30;14.10;;;2.83;;
18503;SDS011;9381;54.244;10.074;2023-09-19T04:24:30;9.60;;;2.50;;
18503;SDS011;9381;54.244;10.074;2023-09-19T04:29:32;9.73;;;2.43;;
18503;SDS011;9381;54.244;10.074;2023-09-19T04:34:33;6.27;;;2.60;;
18503;SDS011;9381;54.244;10.074;2023-09-19T04:39:34;6.83;;;2.30;;
18503;SDS011;9381;54.244;10.074;2023-09-19T04:44:34;7.90;;;2.50;;
18503;SDS011;9381;54.244;10.074;2023-09-19T04:49:36;9.87;;;2.90;;
18503;SDS011;9381;54.244;10.074;2023-09-19T04:54:36;8.97;;;2.40;;
18503;SDS011;9381;54.244;10.074;2023-09-19T04:59:37;10.37;;;2.40;;
18503;SDS011;9381;54.244;10.074;2023-09-19T05:04:37;7.68;;;2.20;;
18503;SDS011;9381;54.244;10.074;2023-09-19T05:09:38;9.57;;;3.07;;
18503;SDS011;9381;54.244;10.074;2023-09-19T05:14:39;11.97;;;2.47;;
18503;SDS011;9381;54.244;10.074;2023-09-19T05:19:40;10.33;;;2.70;;
18503;SDS011;9381;54.244;10.074;2023-09-19T05:24:40;10.73;;;2.30;;
18503;SDS011;9381;54.244;10.074;2023-09-19T05:29:41;12.27;;;2.83;;
18503;SDS011;9381;54.244;10.074;2023-09-19T05:34:44;7.57;;;2.37;;
18503;SDS011;9381;54.244;10.074;2023-09-19T05:39:44;10.10;;;2.87;;
18503;SDS011;9381;54.244;10.074;2023-09-19T05:44:45;13.13;;;2.53;;
18503;SDS011;9381;54.244;10.074;2023-09-19T05:49:45;10.87;;;2.30;;
18503;SDS011;9381;54.244;10.074;2023-09-19T05:54:45;13.10;;;3.33;;
18503;SDS011;9381;54.244;10.074;2023-09-19T05:59:46;12.50;;;2.57;;
18503;SDS011;9381;54.244;10.074;2023-09-19T06:04:47;5.93;;;2.00;;
18503;SDS011;9381;54.244;10.074;2023-09-19T06:09:48;10.18;;;2.38;;
18503;SDS011;9381;54.244;10.074;2023-09-19T06:14:48;9.63;;;2.47;;
18503;SDS011;9381;54.244;10.074;2023-09-19T06:19:49;7.47;;;2.10;;
18503;SDS011;9381;54.244;10.074;2023-09-19T06:24:50;13.87;;;2.37;;
18503;SDS011;9381;54.244;10.074;2023-09-19T06:29:50;13.07;;;2.63;;
18503;SDS011;9381;54.244;10.074;2023-09-19T06:34:52;10.07;;;2.73;;
18503;SDS011;9381;54.244;10.074;2023-09-19T06:39:55;11.10;;;2.93;;
18503;SDS011;9381;54.244;10.074;2023-09-19T06:44:56;7.67;;;2.80;;
18503;SDS011;9381;54.244;10.074;2023-09-19T06:49:57;10.85;;;2.35;;
18503;SDS011;9381;54.244;10.074;2023-09-19T06:54:57;7.15;;;2.20;;
18503;SDS011;9381;54.244;10.074;2023-09-19T06:59:57;10.07;;;2.13;;
18503;SDS011;9381;54.244;10.074;2023-09-19T07:04:58;10.70;;;2.50;;
18503;SDS011;9381;54.244;10.074;2023-09-19T07:09:58;11.13;;;2.50;;
18503;SDS011;9381;54.244;10.074;2023-09-19T07:14:58;11.93;;;2.40;;
18503;SDS011;9381;54.244;10.074;2023-09-19T07:19:59;8.10;;;2.42;;
18503;SDS011;9381;54.244;10.074;2023-09-19T07:24:59;11.57;;;2.63;;
18503;SDS011;9381;54.244;10.074;2023-09-19T07:30:00;8.40;;;2.53;;
18503;SDS011;9381;54.244;10.074;2023-09-19T07:35:00;9.20;;;2.80;;
18503;SDS011;9381;54.244;10.074;2023-09-19T07:40:00;10.17;;;2.67;;
18503;SDS011;9381;54.244;10.074;2023-09-19T07:45:01;11.45;;;2.58;;
18503;SDS011;9381;54.244;10.074;2023-09-19T07:50:01;7.47;;;2.03;;
18503;SDS011;9381;54.244;10.074;2023-09-19T07:55:02;7.03;;;2.47;;
18503;SDS011;9381;54.244;10.074;2023-09-19T08:00:09;9.33;;;2.23;;
18503;SDS011;9381;54.244;10.074;2023-09-19T08:05:10;9.93;;;2.60;;
18503;SDS011;9381;54.244;10.074;2023-09-19T08:10:11;9.50;;;2.60;;
18503;SDS011;9381;54.244;10.074;2023-09-19T08:15:14;6.67;;;2.20;;
18503;SDS011;9381;54.244;10.074;2023-09-19T08:20:21;8.10;;;2.07;;
18503;SDS011;9381;54.244;10.074;2023-09-19T08:25:22;7.67;;;2.70;;
18503;SDS011;9381;54.244;10.074;2023-09-19T08:30:23;8.93;;;2.27;;
18503;SDS011;9381;54.244;10.074;2023-09-19T08:35:24;12.77;;;2.97;;
18503;SDS011;9381;54.244;10.074;2023-09-19T08:40:24;10.33;;;2.83;;
18503;SDS011;9381;54.244;10.074;2023-09-19T08:45:27;9.20;;;2.80;;
18503;SDS011;9381;54.244;10.074;2023-09-19T08:50:28;9.40;;;2.80;;
18503;SDS011;9381;54.244;10.074;2023-09-19T08:55:29;8.63;;;2.70;;
18503;SDS011;9381;54.244;10.074;2023-09-19T09:00:31;9.87;;;3.20;;
18503;SDS011;9381;54.244;10.074;2023-09-19T09:05:32;14.20;;;2.90;;
18503;SDS011;9381;54.244;10.074;2023-09-19T09:10:37;9.07;;;2.87;;
18503;SDS011;9381;54.244;10.074;2023-09-19T09:15:37;11.83;;;2.40;;
18503;SDS011;9381;54.244;10.074;2023-09-19T09:20:38;9.37;;;2.53;;
18503;SDS011;9381;54.244;10.074;2023-09-19T09:31:02;9.73;;;2.67;;
18503;SDS011;9381;54.244;10.074;2023-09-19T09:36:07;6.90;;;2.93;;
18503;SDS011;9381;54.244;10.074;2023-09-19T09:41:08;12.17;;;3.27;;
18503;SDS011;9381;54.244;10.074;2023-09-19T09:51:31;9.80;;;3.30;;
18503;SDS011;9381;54.244;10.074;2023-09-19T09:56:31;11.03;;;3.00;;
18503;SDS011;9381;54.244;10.074;2023-09-19T10:01:46;11.50;;;3.47;;
18503;SDS011;9381;54.244;10.074;2023-09-19T10:06:48;11.10;;;2.87;;
18503;SDS011;9381;54.244;10.074;2023-09-19T10:12:00;12.10;;;3.28;;
18503;SDS011;9381;54.244;10.074;2023-09-19T10:17:05;12.67;;;2.90;;
18503;SDS011;9381;54.244;10.074;2023-09-19T10:22:06;11.97;;;2.70;;
18503;SDS011;9381;54.244;10.074;2023-09-19T10:27:08;11.97;;;2.93;;
18503;SDS011;9381;54.244;10.074;2023-09-19T10:32:09;9.25;;;2.60;;
18503;SDS011;9381;54.244;10.074;2023-09-19T10:37:11;9.60;;;2.43;;
18503;SDS011;9381;54.244;10.074;2023-09-19T10:42:14;7.00;;;2.47;;
18503;SDS011;9381;54.244;10.074;2023-09-19T10:47:19;8.70;;;3.30;;
18503;SDS011;9381;54.244;10.074;2023-09-19T10:52:21;15.53;;;3.33;;
18503;SDS011;9381;54.244;10.074;2023-09-19T10:57:25;10.33;;;2.57;;
18503;SDS011;9381;54.244;10.074;2023-09-19T11:02:27;11.77;;;2.90;;
18503;SDS011;9381;54.244;10.074;2023-09-19T11:07:28;10.48;;;2.72;;
18503;SDS011;9381;54.244;10.074;2023-09-19T11:17:41;7.70;;;2.30;;
18503;SDS011;9381;54.244;10.074;2023-09-19T11:44:32;9.73;;;2.43;;
18503;SDS011;9381;54.244;10.074;2023-09-19T11:49:13;10.83;;;2.77;;
18503;SDS011;9381;54.244;10.074;2023-09-19T11:54:15;12.63;;;2.60;;
18503;SDS011;9381;54.244;10.074;2023-09-19T11:59:21;11.37;;;2.73;;
18503;SDS011;9381;54.244;10.074;2023-09-19T12:04:42;9.57;;;2.90;;
18503;SDS011;9381;54.244;10.074;2023-09-19T12:09:48;13.00;;;2.93;;
18503;SDS011;9381;54.244;10.074;2023-09-19T12:14:50;12.43;;;2.70;;
18503;SDS011;9381;54.244;10.074;2023-09-19T12:19:51;12.33;;;2.80;;
18503;SDS011;9381;54.244;10.074;2023-09-19T12:24:52;12.43;;;2.73;;
18503;SDS011;9381;54.244;10.074;2023-09-19T12:29:54;8.97;;;2.57;;
18503;SDS011;9381;54.244;10.074;2023-09-19T12:34:55;8.23;;;2.50;;
18503;SDS011;9381;54.244;10.074;2023-09-19T12:40:05;6.90;;;2.67;;
18503;SDS011;9381;54.244;10.074;2023-09-19T12:45:22;8.30;;;2.53;;
18503;SDS011;9381;54.244;10.074;2023-09-19T12:50:22;8.83;;;2.80;;
18503;SDS011;9381;54.244;10.074;2023-09-19T12:55:30;12.37;;;3.37;;
18503;SDS011;9381;54.244;10.074;2023-09-19T13:00:37;10.40;;;3.23;;
18503;SDS011;9381;54.244;10.074;2023-09-19T13:11:06;9.77;;;3.13;;
18503;SDS011;9381;54.244;10.074;2023-09-19T13:16:12;11.87;;;2.80;;
18503;SDS011;9381;54.244;10.074;2023-09-19T13:21:29;11.03;;;2.80;;
18503;SDS011;9381;54.244;10.074;2023-09-19T13:26:37;8.80;;;2.70;;
18503;SDS011;9381;54.244;10.074;2023-09-19T13:31:38;9.87;;;2.77;;
18503;SDS011;9381;54.244;10.074;2023-09-19T13:36:41;10.53;;;3.17;;
18503;SDS011;9381;54.244;10.074;2023-09-19T13:41:46;9.50;;;3.13;;
18503;SDS011;9381;54.244;10.074;2023-09-19T13:46:47;12.77;;;3.27;;
18503;SDS011;9381;54.244;10.074;2023-09-19T13:51:48;7.83;;;3.00;;
18503;SDS011;9381;54.244;10.074;2023-09-19T13:56:48;15.53;;;3.50;;
18503;SDS011;9381;54.244;10.074;2023-09-19T14:01:51;9.97;;;3.50;;
18503;SDS011;9381;54.244;10.074;2023-09-19T14:06:53;10.30;;;3.07;;
18503;SDS011;9381;54.244;10.074;2023-09-19T14:11:53;12.68;;;3.45;;
18503;SDS011;9381;54.244;10.074;2023-09-19T14:16:53;11.40;;;3.20;;
18503;SDS011;9381;54.244;10.074;2023-09-19T14:21:54;13.70;;;3.40;;
18503;SDS011;9381;54.244;10.074;2023-09-19T14:26:55;13.97;;;3.23;;
18503;SDS011;9381;54.244;10.074;2023-09-19T14:31:56;7.87;;;3.00;;
18503;SDS011;9381;54.244;10.074;2023-09-19T14:36:57;12.47;;;3.27;;
18503;SDS011;9381;54.244;10.074;2023-09-19T14:41:57;10.10;;;3.50;;
18503;SDS011;9381;54.244;10.074;2023-09-19T14:46:58;8.47;;;3.00;;
18503;SDS011;9381;54.244;10.074;2023-09-19T14:51:58;14.50;;;3.20;;
18503;SDS011;9381;54.244;10.074;2023-09-19T14:56:59;11.63;;;3.37;;
18503;SDS011;9381;54.244;10.074;2023-09-19T15:02:08;9.00;;;3.07;;
18503;SDS011;9381;54.244;10.074;2023-09-19T15:07:09;11.00;;;2.87;;
18503;SDS011;9381;54.244;10.074;2023-09-19T15:12:10;10.70;;;3.30;;
18503;SDS011;9381;54.244;10.074;2023-09-19T15:17:14;6.93;;;2.77;;
18503;SDS011;9381;54.244;10.074;2023-09-19T15:22:16;7.63;;;2.97;;
18503;SDS011;9381;54.244;10.074;2023-09-19T15:27:16;14.23;;;3.53;;
18503;SDS011;9381;54.244;10.074;2023-09-19T15:32:19;8.37;;;2.70;;
18503;SDS011;9381;54.244;10.074;2023-09-19T15:37:20;10.95;;;2.80;;
18503;SDS011;9381;54.244;10.074;2023-09-19T15:42:20;12.07;;;3.00;;
18503;SDS011;9381;54.244;10.074;2023-09-19T15:47:20;10.90;;;3.20;;
18503;SDS011;9381;54.244;10.074;2023-09-19T15:52:21;9.90;;;2.70;;
18503;SDS011;9381;54.244;10.074;2023-09-19T15:57:21;11.70;;;2.77;;
18503;SDS011;9381;54.244;10.074;2023-09-19T16:02:23;6.83;;;2.63;;
18503;SDS011;9381;54.244;10.074;2023-09-19T16:07:25;7.13;;;2.73;;
18503;SDS011;9381;54.244;10.074;2023-09-19T16:12:26;8.30;;;2.97;;
18503;SDS011;9381;54.244;10.074;2023-09-19T16:17:26;13.83;;;3.07;;
18503;SDS011;9381;54.244;10.074;2023-09-19T16:22:27;11.80;;;3.37;;
18503;SDS011;9381;54.244;10.074;2023-09-19T16:27:27;7.13;;;2.40;;
18503;SDS011;9381;54.244;10.074;2023-09-19T16:32:27;9.50;;;3.07;;
18503;SDS011;9381;54.244;10.074;2023-09-19T16:37:28;11.90;;;2.63;;
18503;SDS011;9381;54.244;10.074;2023-09-19T16:42:28;8.17;;;2.90;;
18503;SDS011;9381;54.244;10.074;2023-09-19T16:47:28;10.77;;;2.75;;
18503;SDS011;9381;54.244;10.074;2023-09-19T16:52:29;10.90;;;3.00;;
18503;SDS011;9381;54.244;10.074;2023-09-19T16:57:29;9.17;;;2.80;;
18503;SDS011;9381;54.244;10.074;2023-09-19T17:02:31;9.60;;;2.47;;
18503;SDS011;9381;54.244;10.074;2023-09-19T17:07:31;9.40;;;2.67;;
18503;SDS011;9381;54.244;10.074;2023-09-19T17:12:32;10.10;;;2.53;;
18503;SDS011;9381;54.244;10.074;2023-09-19T17:17:32;9.80;;;2.30;;
18503;SDS011;9381;54.244;10.074;2023-09-19T17:22:34;12.00;;;2.87;;
18503;SDS011;9381;54.244;10.074;2023-09-19T17:27:35;15.67;;;3.67;;
18503;SDS011;9381;54.244;10.074;2023-09-19T17:32:35;9.23;;;2.63;;
18503;SDS011;9381;54.244;10.074;2023-09-19T17:37:36;9.47;;;2.73;;
18503;SDS011;9381;54.244;10.074;2023-09-19T17:42:39;9.13;;;2.20;;
18503;SDS011;9381;54.244;10.074;2023-09-19T17:47:42;13.00;;;2.23;;
18503;SDS011;9381;54.244;10.074;2023-09-19T17:52:43;12.13;;;2.43;;
18503;SDS011;9381;54.244;10.074;2023-09-19T17:57:43;8.73;;;2.10;;
18503;SDS011;9381;54.244;10.074;2023-09-19T18:02:45;5.80;;;1.90;;
18503;SDS011;9381;54.244;10.074;2023-09-19T18:07:45;13.93;;;2.67;;
18503;SDS011;9381;54.244;10.074;2023-09-19T18:12:47;12.43;;;2.43;;
18503;SDS011;9381;54.244;10.074;2023-09-19T18:17:48;5.53;;;2.67;;
18503;SDS011;9381;54.244;10.074;2023-09-19T18:22:48;9.45;;;2.28;;
18503;SDS011;9381;54.244;10.074;2023-09-19T18:27:48;6.82;;;2.03;;
18503;SDS011;9381;54.244;10.074;2023-09-19T18:32:49;7.57;;;2.57;;
18503;SDS011;9381;54.244;10.074;2023-09-19T18:37:51;10.93;;;1.90;;
18503;SDS011;9381;54.244;10.074;2023-09-19T18:42:52;5.97;;;1.97;;
18503;SDS011;9381;54.244;10.074;2023-09-19T18:47:53;10.63;;;2.20;;
18503;SDS011;9381;54.244;10.074;2023-09-19T18:52:53;4.30;;;1.90;;
18503;SDS011;9381;54.244;10.074;2023-09-19T18:57:53;6.70;;;2.15;;
18503;SDS011;9381;54.244;10.074;2023-09-19T19:02:54;8.93;;;2.30;;
18503;SDS011;9381;54.244;10.074;2023-09-19T19:07:54;6.50;;;1.80;;
18503;SDS011;9381;54.244;10.074;2023-09-19T19:12:57;6.47;;;2.20;;
18503;SDS011;9381;54.244;10.074;2023-09-19T19:17:57;7.67;;;2.10;;
18503;SDS011;9381;54.244;10.074;2023-09-19T19:22:58;6.37;;;1.80;;
18503;SDS011;9381;54.244;10.074;2023-09-19T19:27:59;4.90;;;2.07;;
18503;SDS011;9381;54.244;10.074;2023-09-19T19:32:59;6.50;;;1.93;;
18503;SDS011;9381;54.244;10.074;2023-09-19T19:37:59;5.73;;;1.57;;
18503;SDS011;9381;54.244;10.074;2023-09-19T19:43:01;8.77;;;2.00;;
18503;SDS011;9381;54.244;10.074;2023-09-19T19:48:02;5.07;;;1.70;;
18503;SDS011;9381;54.244;10.074;2023-09-19T19:53:03;7.00;;;1.70;;
18503;SDS011;9381;54.244;10.074;2023-09-19T19:58:03;4.00;;;1.53;;
18503;SDS011;9381;54.244;10.074;2023-09-19T20:03:04;9.57;;;1.60;;
18503;SDS011;9381;54.244;10.074;2023-09-19T20:08:04;4.50;;;2.00;;
18503;SDS011;9381;54.244;10.074;2023-09-19T20:13:05;7.20;;;2.03;;
18503;SDS011;9381;54.244;10.074;2023-09-19T20:18:06;8.70;;;1.80;;
18503;SDS011;9381;54.244;10.074;2023-09-19T20:23:13;5.50;;;1.90;;
18503;SDS011;9381;54.244;10.074;2023-09-19T20:28:14;2.03;;;1.30;;
18503;SDS011;9381;54.244;10.074;2023-09-19T20:33:18;5.23;;;1.77;;
18503;SDS011;9381;54.244;10.074;2023-09-19T20:38:18;4.83;;;1.83;;
18503;SDS011;9381;54.244;10.074;2023-09-19T20:43:18;8.87;;;1.57;;
18503;SDS011;9381;54.244;10.074;2023-09-19T20:48:19;3.67;;;1.63;;
18503;SDS011;9381;54.244;10.074;2023-09-19T20:53:19;8.97;;;1.83;;
18503;SDS011;9381;54.244;10.074;2023-09-19T20:58:20;4.77;;;1.47;;
18503;SDS011;9381;54.244;10.074;2023-09-19T21:03:20;2.80;;;1.40;;
18503;SDS011;9381;54.244;10.074;2023-09-19T21:08:20;3.50;;;1.55;;
18503;SDS011;9381;54.244;10.074;2023-09-19T21:13:21;3.50;;;1.80;;
18503;SDS011;9381;54.244;10.074;2023-09-19T21:18:21;5.47;;;1.47;;
18503;SDS011;9381;54.244;10.074;2023-09-19T21:23:21;7.17;;;1.90;;
18503;SDS011;9381;54.244;10.074;2023-09-19T21:28:22;4.90;;;1.70;;
18503;SDS011;9381;54.244;10.074;2023-09-19T21:33:22;7.07;;;1.60;;
18503;SDS011;9381;54.244;10.074;2023-09-19T21:38:22;5.83;;;1.90;;
18503;SDS011;9381;54.244;10.074;2023-09-19T21:43:23;4.13;;;1.67;;
18503;SDS011;9381;54.244;10.074;2023-09-19T21:48:24;3.45;;;1.55;;
18503;SDS011;9381;54.244;10.074;2023-09-19T21:53:24;3.87;;;1.57;;
18503;SDS011;9381;54.244;10.074;2023-09-19T21:58:25;7.40;;;1.60;;
18503;SDS011;9381;54.244;10.074;2023-09-19T22:03:25;6.33;;;1.63;;
18503;SDS011;9381;54.244;10.074;2023-09-19T22:08:26;1.80;;;1.47;;
18503;SDS011;9381;54.244;10.074;2023-09-19T22:13:27;3.03;;;1.52;;
18503;SDS011;9381;54.244;10.074;2023-09-19T22:18:29;4.80;;;1.60;;
18503;SDS011;9381;54.244;10.074;2023-09-19T22:23:30;5.40;;;1.60;;
18503;SDS011;9381;54.244;10.074;2023-09-19T22:28:36;5.37;;;1.77;;
18503;SDS011;9381;54.244;10.074;2023-09-19T22:33:40;3.60;;;1.87;;
18503;SDS011;9381;54.244;10.074;2023-09-19T22:38:40;4.13;;;1.63;;
18503;SDS011;9381;54.244;10.074;2023-09-19T22:43:41;2.53;;;1.97;;
18503;SDS011;9381;54.244;10.074;2023-09-19T22:48:48;5.47;;;1.90;;
18503;SDS011;9381;54.244;10.074;2023-09-19T22:53:50;5.43;;;2.07;;
18503;SDS011;9381;54.244;10.074;2023-09-19T22:58:59;5.13;;;2.20;;
18503;SDS011;9381;54.244;10.074;2023-09-19T23:04:01;4.07;;;2.33;;
18503;SDS011;9381;54.244;10.074;2023-09-19T23:09:11;4.13;;;2.50;;
18503;SDS011;9381;54.244;10.074;2023-09-19T23:14:37;6.90;;;3.37;;
18503;SDS011;9381;54.244;10.074;2023-09-19T23:19:41;7.57;;;2.90;;
18503;SDS011;9381;54.244;10.074;2023-09-19T23:24:47;6.70;;;3.20;;
18503;SDS011;9381;54.244;10.074;2023-09-19T23:30:12;6.13;;;3.00;;
18503;SDS011;9381;54.244;10.074;2023-09-19T23:35:17;5.80;;;3.37;;
18503;SDS011;9381;54.244;10.074;2023-09-19T23:40:20;7.83;;;3.33;;
18503;SDS011;9381;54.244;10.074;2023-09-19T23:45:22;6.47;;;3.40;;
18503;SDS011;9381;54.244;10.074;2023-09-19T23:50:26;9.87;;;2.90;;
18503;SDS011;9381;54.244;10.074;2023-09-19T23:55:29;11.07;;;4.07;;
